createdAt,value
2023-04-22T00:01:01.559Z,38.50
2023-04-22T00:03:31.560Z,12.20
2023-04-22T00:06:01.412Z,39.00
2023-04-22T00:08:30.380Z,40.33
2023-04-22T00:11:00.170Z,41.33
2023-04-22T00:13:29.755Z,43.00
2023-04-22T00:15:59.290Z,44.00
2023-04-22T00:18:28.188Z,41.00
2023-04-22T00:20:57.722Z,38.00
2023-04-22T00:23:27.250Z,39.33
2023-04-22T00:25:56.107Z,36.50
2023-04-22T00:28:25.634Z,41.00
2023-04-22T00:30:54.442Z,39.00
2023-04-22T00:33:23.186Z,39.00
2023-04-22T00:35:54.826Z,42.00
2023-04-22T00:38:24.476Z,42.50
2023-04-22T00:40:53.209Z,40.33
2023-04-22T00:43:22.811Z,39.00
2023-04-22T00:45:52.318Z,40.67
2023-04-22T00:48:22.415Z,42.00
2023-04-22T00:50:51.176Z,42.00
2023-04-22T00:53:20.362Z,42.50
2023-04-22T00:55:49.951Z,42.00
2023-04-22T00:58:22.792Z,41.67
2023-04-22T01:00:52.466Z,42.00
2023-04-22T01:03:22.541Z,45.00
2023-04-22T01:05:51.771Z,44.50
2023-04-22T01:08:19.643Z,43.00
2023-04-22T01:10:48.476Z,44.50
2023-04-22T01:13:17.234Z,41.50
2023-04-22T01:15:46.176Z,44.50
2023-04-22T01:18:16.075Z,43.00
2023-04-22T01:20:45.758Z,41.00
2023-04-22T01:23:22.912Z,39.67
2023-04-22T01:25:52.435Z,40.50
2023-04-22T01:28:22.109Z,41.00
2023-04-22T01:30:51.287Z,39.50
2023-04-22T01:33:20.949Z,40.67
2023-04-22T01:35:49.778Z,42.00
2023-04-22T01:38:19.374Z,41.33
2023-04-22T01:40:49.049Z,39.33
2023-04-22T01:43:18.561Z,40.00
2023-04-22T01:45:48.119Z,42.67
2023-04-22T01:48:17.798Z,42.00
2023-04-22T01:50:46.614Z,43.00
2023-04-22T01:53:16.216Z,43.00
2023-04-22T01:55:45.635Z,40.50
2023-04-22T01:58:14.894Z,44.50
2023-04-22T02:00:45.248Z,45.67
2023-04-22T02:03:15.014Z,42.33
2023-04-22T02:05:43.931Z,39.50
2023-04-22T02:08:13.472Z,38.33
2023-04-22T02:10:42.341Z,38.50
2023-04-22T02:13:11.292Z,37.00
2023-04-22T02:15:41.551Z,39.00
2023-04-22T02:18:11.410Z,40.00
2023-04-22T02:20:40.992Z,36.00
2023-04-22T02:23:10.669Z,37.33
2023-04-22T02:26:17.076Z,36.00
2023-04-22T02:28:46.487Z,35.50
2023-04-22T02:31:15.243Z,39.00
2023-04-22T02:33:43.975Z,39.33
2023-04-22T02:36:12.754Z,38.00
2023-04-22T02:38:41.532Z,38.00
2023-04-22T02:41:10.843Z,37.33
2023-04-22T02:43:42.591Z,40.00
2023-04-22T02:46:13.329Z,39.00
2023-04-22T02:48:43.880Z,40.00
2023-04-22T02:51:13.269Z,38.00
2023-04-22T02:53:41.400Z,38.50
2023-04-22T02:56:10.213Z,43.00
2023-04-22T02:58:38.936Z,38.50
2023-04-22T03:01:06.971Z,38.50
2023-04-22T03:03:36.273Z,41.00
2023-04-22T03:06:05.411Z,35.50
2023-04-22T03:08:34.189Z,40.50
2023-04-22T03:11:03.056Z,40.00
2023-04-22T03:13:32.603Z,43.67
2023-04-22T03:16:02.228Z,42.33
2023-04-22T03:18:31.100Z,42.00
2023-04-22T03:21:01.198Z,41.00
2023-04-22T03:23:30.053Z,45.00
2023-04-22T03:25:59.609Z,40.33
2023-04-22T03:28:28.387Z,41.00
2023-04-22T03:30:56.277Z,40.00
2023-04-22T03:33:25.103Z,41.00
2023-04-22T03:35:55.301Z,35.50
2023-04-22T03:38:23.196Z,40.00
2023-04-22T03:40:52.016Z,43.50
2023-04-22T03:43:21.554Z,41.00
2023-04-22T03:45:52.849Z,39.00
2023-04-22T03:48:21.683Z,37.00
2023-04-22T03:50:51.217Z,38.33
2023-04-22T03:53:21.098Z,37.00
2023-04-22T03:55:49.814Z,37.33
2023-04-22T03:58:19.023Z,36.00
2023-04-22T04:00:48.590Z,37.67
2023-04-22T04:03:16.849Z,37.00
2023-04-22T04:05:45.968Z,40.00
2023-04-22T04:08:14.876Z,40.50
2023-04-22T04:10:43.671Z,39.00
2023-04-22T04:13:12.508Z,41.00
2023-04-22T04:15:42.291Z,37.67
2023-04-22T04:18:12.168Z,39.00
2023-04-22T04:20:40.916Z,15.00
2023-04-22T04:23:09.699Z,40.50
2023-04-22T04:25:39.024Z,39.50
2023-04-22T04:28:11.461Z,36.00
2023-04-22T04:30:41.909Z,38.67
2023-04-22T04:33:12.609Z,38.00
2023-04-22T04:35:41.837Z,32.67
2023-04-22T04:38:10.647Z,34.00
2023-04-22T04:40:39.468Z,31.67
2023-04-22T04:43:08.959Z,30.00
2023-04-22T04:45:39.342Z,28.33
2023-04-22T04:48:08.167Z,29.00
2023-04-22T04:50:37.013Z,27.00
2023-04-22T04:53:07.440Z,26.67
2023-04-22T04:55:36.390Z,30.00
2023-04-22T04:58:05.846Z,27.67
2023-04-22T05:00:34.564Z,30.00
2023-04-22T05:03:03.767Z,30.00
2023-04-22T05:05:33.443Z,27.00
2023-04-22T05:08:02.202Z,28.67
2023-04-22T05:10:31.115Z,30.00
2023-04-22T05:13:00.745Z,26.00
2023-04-22T05:15:31.714Z,28.00
2023-04-22T05:18:01.380Z,29.00
2023-04-22T05:20:30.153Z,25.67
2023-04-22T05:22:58.875Z,27.00
2023-04-22T05:25:27.752Z,27.00
2023-04-22T05:27:57.236Z,27.67
2023-04-22T05:30:25.985Z,27.67
2023-04-22T05:32:55.608Z,26.33
2023-04-22T05:35:24.430Z,21.67
2023-04-22T05:37:53.121Z,25.33
2023-04-22T05:40:22.724Z,21.33
2023-04-22T05:42:51.382Z,26.50
2023-04-22T05:45:20.090Z,23.00
2023-04-22T05:47:48.814Z,20.67
2023-04-22T05:50:17.521Z,24.67
2023-04-22T05:52:47.048Z,24.33
2023-04-22T05:55:15.809Z,25.00
2023-04-22T05:57:44.535Z,25.67
2023-04-22T06:00:14.565Z,25.00
2023-04-22T06:02:44.173Z,25.33
2023-04-22T06:05:13.237Z,20.00
2023-04-22T06:07:42.114Z,19.50
2023-04-22T06:10:11.828Z,23.00
2023-04-22T06:12:40.971Z,23.00
2023-04-22T06:15:11.739Z,21.33
2023-04-22T06:17:40.954Z,22.00
2023-04-22T06:20:12.719Z,22.67
2023-04-22T06:22:41.441Z,20.00
2023-04-22T06:25:11.194Z,19.67
2023-04-22T06:27:39.922Z,20.00
2023-04-22T06:30:11.729Z,19.67
2023-04-22T06:32:40.390Z,19.00
2023-04-22T06:35:09.801Z,18.50
2023-04-22T06:37:39.319Z,20.00
2023-04-22T06:40:09.349Z,25.67
2023-04-22T06:42:38.120Z,15.50
2023-04-22T06:45:09.600Z,15.50
2023-04-22T06:47:39.332Z,16.00
2023-04-22T06:50:12.125Z,14.00
2023-04-22T06:52:40.844Z,17.33
2023-04-22T06:55:10.309Z,13.00
2023-04-22T06:57:39.014Z,14.67
2023-04-22T07:00:09.113Z,13.33
2023-04-22T07:02:38.803Z,48.25
2023-04-22T07:05:07.936Z,12.67
2023-04-22T07:07:36.947Z,14.33
2023-04-22T07:10:07.279Z,69.50
2023-04-22T07:12:36.749Z,17.67
2023-04-22T07:15:06.461Z,15.00
2023-04-22T07:17:35.480Z,16.00
2023-04-22T07:20:04.433Z,16.33
2023-04-22T07:22:33.050Z,16.33
2023-04-22T07:25:02.948Z,40.00
2023-04-22T07:27:31.726Z,16.00
2023-04-22T07:30:00.471Z,14.50
2023-04-22T07:32:29.182Z,15.50
2023-04-22T07:34:59.002Z,16.67
2023-04-22T07:37:27.551Z,12.33
2023-04-22T07:39:56.253Z,41.33
2023-04-22T07:42:25.946Z,28.00
2023-04-22T07:44:54.837Z,21.33
2023-04-22T07:47:23.423Z,19.00
2023-04-22T07:49:52.141Z,24.00
2023-04-22T07:52:21.245Z,15.50
2023-04-22T07:54:50.202Z,12.00
2023-04-22T07:57:22.041Z,41.00
2023-04-22T07:59:51.859Z,23.67
2023-04-22T08:02:21.437Z,30.75
2023-04-22T08:04:50.300Z,14.00
2023-04-22T08:09:50.698Z,47.50
2023-04-22T08:12:19.657Z,18.67
2023-04-22T08:14:48.366Z,15.00
2023-04-22T08:17:17.107Z,12.67
2023-04-22T08:19:46.507Z,50.50
2023-04-22T08:22:18.082Z,21.67
2023-04-22T08:24:46.766Z,18.00
2023-04-22T08:27:16.276Z,19.67
2023-04-22T08:29:48.820Z,22.33
2023-04-22T08:32:19.928Z,19.33
2023-04-22T08:34:51.888Z,33.33
2023-04-22T08:37:22.686Z,18.33
2023-04-22T08:39:51.323Z,14.33
2023-04-22T08:42:23.077Z,17.50
2023-04-22T08:44:57.191Z,64.00
2023-04-22T08:47:26.810Z,18.00
2023-04-22T08:49:56.813Z,16.33
2023-04-22T08:52:26.360Z,24.00
2023-04-22T08:54:55.077Z,31.33
2023-04-22T08:57:24.940Z,17.00
2023-04-22T08:59:55.908Z,23.50
2023-04-22T09:02:26.129Z,17.67
2023-04-22T09:04:54.805Z,19.33
2023-04-22T09:07:28.104Z,15.33
2023-04-22T09:09:58.363Z,17.33
2023-04-22T09:12:27.795Z,30.00
2023-04-22T09:14:57.440Z,21.67
2023-04-22T09:17:38.711Z,21.00
2023-04-22T09:20:09.952Z,17.33
2023-04-22T09:22:50.052Z,17.67
2023-04-22T09:25:24.634Z,18.00
2023-04-22T09:27:59.450Z,15.67
2023-04-22T09:30:34.317Z,18.67
2023-04-22T09:33:06.785Z,16.67
2023-04-22T09:35:40.419Z,15.67
2023-04-22T09:38:12.693Z,16.00
2023-04-22T09:40:45.569Z,18.67
2023-04-22T09:43:21.010Z,18.00
2023-04-22T09:45:49.659Z,17.50
2023-04-22T09:48:20.492Z,15.33
2023-04-22T09:50:52.281Z,20.67
2023-04-22T09:53:22.863Z,16.33
2023-04-22T09:55:55.903Z,17.00
2023-04-22T09:58:25.989Z,22.00
2023-04-22T10:00:59.548Z,15.50
2023-04-22T10:03:28.316Z,14.00
2023-04-22T10:05:57.797Z,11.33
2023-04-22T10:08:26.404Z,16.33
2023-04-22T10:10:55.161Z,17.33
2023-04-22T10:13:24.864Z,17.67
2023-04-22T10:15:56.467Z,16.67
2023-04-22T10:18:30.303Z,15.00
2023-04-22T10:21:00.250Z,16.00
2023-04-22T10:23:34.452Z,18.00
2023-04-22T10:26:06.126Z,16.00
2023-04-22T10:28:35.027Z,17.50
2023-04-22T10:31:24.273Z,18.00
2023-04-22T10:34:14.447Z,16.00
2023-04-22T10:37:07.274Z,17.33
2023-04-22T10:39:36.595Z,15.33
2023-04-22T10:42:11.335Z,18.33
2023-04-22T10:44:53.220Z,14.00
2023-04-22T10:47:36.662Z,25.75
2023-04-22T10:50:28.010Z,15.00
2023-04-22T10:53:37.411Z,28.33
2023-04-22T10:56:18.392Z,25.67
2023-04-22T10:58:47.741Z,18.67
2023-04-22T11:01:16.490Z,18.50
2023-04-22T11:03:45.371Z,15.00
2023-04-22T11:06:22.596Z,16.33
2023-04-22T11:08:53.962Z,13.00
2023-04-22T11:11:22.604Z,19.00
2023-04-22T11:13:52.095Z,13.67
2023-04-22T11:16:23.545Z,22.67
2023-04-22T11:18:52.624Z,17.00
2023-04-22T11:21:22.584Z,25.67
2023-04-22T11:23:53.327Z,16.33
2023-04-22T11:26:35.695Z,18.67
2023-04-22T11:29:04.542Z,17.00
2023-04-22T11:31:33.250Z,15.00
2023-04-22T11:34:01.850Z,16.00
2023-04-22T11:36:30.723Z,13.67
2023-04-22T11:38:59.293Z,12.67
2023-04-22T11:41:30.193Z,12.67
2023-04-22T11:44:01.869Z,15.33
2023-04-22T11:46:39.595Z,15.50
2023-04-22T11:49:20.921Z,16.50
2023-04-22T11:51:57.212Z,18.50
2023-04-22T11:54:35.770Z,15.00
2023-04-22T11:57:08.479Z,14.33
2023-04-22T11:59:37.281Z,14.00
2023-04-22T12:02:07.834Z,16.00
2023-04-22T12:04:41.638Z,15.00
2023-04-22T12:07:10.236Z,15.00
2023-04-22T12:09:41.314Z,20.67
2023-04-22T12:12:10.112Z,15.00
2023-04-22T12:14:38.792Z,15.33
2023-04-22T12:17:12.457Z,16.00
2023-04-22T12:19:41.703Z,16.00
2023-04-22T12:22:10.560Z,14.50
2023-04-22T12:24:46.779Z,15.50
2023-04-22T12:27:14.581Z,17.00
2023-04-22T12:29:56.142Z,14.00
2023-04-22T12:32:27.237Z,16.00
2023-04-22T12:34:56.458Z,16.00
2023-04-22T12:37:25.054Z,15.00
2023-04-22T12:39:53.852Z,23.00
2023-04-22T12:42:21.652Z,14.00
2023-04-22T12:44:50.358Z,30.33
2023-04-22T12:47:19.255Z,15.50
2023-04-22T12:49:49.502Z,20.00
2023-04-22T12:52:18.369Z,15.00
2023-04-22T12:54:47.048Z,16.67
2023-04-22T12:57:15.814Z,15.33
2023-04-22T12:59:47.427Z,16.00
2023-04-22T13:02:16.215Z,14.50
2023-04-22T13:04:45.878Z,16.00
2023-04-22T13:07:14.499Z,16.00
2023-04-22T13:09:43.585Z,17.67
2023-04-22T13:12:12.531Z,18.00
2023-04-22T13:14:41.120Z,16.00
2023-04-22T13:17:09.797Z,16.00
2023-04-22T13:19:38.732Z,19.67
2023-04-22T13:22:07.534Z,38.33
2023-04-22T13:24:36.205Z,28.33
2023-04-22T13:27:07.388Z,29.75
2023-04-22T13:29:37.205Z,27.33
2023-04-22T13:32:07.610Z,37.25
2023-04-22T13:34:36.588Z,17.00
2023-04-22T13:37:05.501Z,23.00
2023-04-22T13:39:34.143Z,20.67
2023-04-22T13:42:04.015Z,15.00
2023-04-22T13:44:32.634Z,16.00
2023-04-22T13:47:02.817Z,16.33
2023-04-22T13:49:32.736Z,18.67
2023-04-22T13:52:01.566Z,17.50
2023-04-22T13:54:31.410Z,14.67
2023-04-22T13:57:00.045Z,16.00
2023-04-22T13:59:28.698Z,17.00
2023-04-22T14:01:57.257Z,15.00
2023-04-22T14:04:25.906Z,14.00
2023-04-22T14:06:54.770Z,17.50
2023-04-22T14:09:23.269Z,15.67
2023-04-22T14:11:51.937Z,12.00
2023-04-22T14:14:20.898Z,12.00
2023-04-22T14:16:49.835Z,16.33
2023-04-22T14:19:18.692Z,15.00
2023-04-22T14:21:47.416Z,14.00
2023-04-22T14:24:16.378Z,10.67
2023-04-22T14:26:45.083Z,15.50
2023-04-22T14:29:14.921Z,40.67
2023-04-22T14:31:43.740Z,17.00
2023-04-22T14:34:12.512Z,15.00
2023-04-22T14:36:40.994Z,15.33
2023-04-22T14:39:09.514Z,17.00
2023-04-22T14:41:38.560Z,14.67
2023-04-22T14:44:07.212Z,15.00
2023-04-22T14:46:36.295Z,19.00
2023-04-22T14:49:04.975Z,15.00
2023-04-22T14:51:35.111Z,17.50
2023-04-22T14:54:03.850Z,13.50
2023-04-22T14:56:32.571Z,16.00
2023-04-22T14:59:02.027Z,21.00
2023-04-22T15:01:31.939Z,16.00
2023-04-22T15:04:00.748Z,15.00
2023-04-22T15:06:29.348Z,14.67
2023-04-22T15:08:57.956Z,16.00
2023-04-22T15:11:26.639Z,17.00
2023-04-22T15:13:55.390Z,16.00
2023-04-22T15:16:24.060Z,18.33
2023-04-22T15:18:52.711Z,15.00
2023-04-22T15:21:21.298Z,13.33
2023-04-22T15:23:49.832Z,17.33
2023-04-22T15:26:18.438Z,13.67
2023-04-22T15:28:47.181Z,16.00
2023-04-22T15:31:15.723Z,14.67
2023-04-22T15:33:44.275Z,11.67
2023-04-22T15:36:13.078Z,13.33
2023-04-22T15:38:41.697Z,15.33
2023-04-22T15:41:10.849Z,14.33
2023-04-22T15:43:39.602Z,13.33
2023-04-22T15:46:08.677Z,15.00
2023-04-22T15:48:37.261Z,13.00
2023-04-22T15:51:05.944Z,16.67
2023-04-22T15:53:34.426Z,13.33
2023-04-22T15:56:03.121Z,15.00
2023-04-22T15:58:34.490Z,15.00
2023-04-22T16:01:17.341Z,15.00
2023-04-22T16:03:49.025Z,16.00
2023-04-22T16:06:21.456Z,18.00
2023-04-22T16:08:50.114Z,16.00
2023-04-22T16:11:19.647Z,6.80
2023-04-22T16:13:48.434Z,15.00
2023-04-22T16:16:16.430Z,16.00
2023-04-22T16:18:45.255Z,17.00
2023-04-22T16:21:13.087Z,16.00
2023-04-22T16:23:41.532Z,14.00
2023-04-22T16:26:10.508Z,12.67
2023-04-22T16:28:38.302Z,15.50
2023-04-22T16:31:06.208Z,15.00
2023-04-22T16:33:35.023Z,16.00
2023-04-22T16:36:03.876Z,15.00
2023-04-22T16:38:32.584Z,15.00
2023-04-22T16:41:01.416Z,14.33
2023-04-22T16:43:29.979Z,14.00
2023-04-22T16:45:58.708Z,17.33
2023-04-22T16:48:26.543Z,10.50
2023-04-22T16:50:54.658Z,16.00
2023-04-22T16:53:23.323Z,13.50
2023-04-22T16:55:52.008Z,15.00
2023-04-22T16:58:20.603Z,16.00
2023-04-22T17:00:49.424Z,14.00
2023-04-22T17:03:17.310Z,14.50
2023-04-22T17:05:46.105Z,16.00
2023-04-22T17:08:13.944Z,14.00
2023-04-22T17:10:45.426Z,20.00
2023-04-22T17:13:15.397Z,30.00
2023-04-22T17:15:44.158Z,21.33
2023-04-22T17:18:14.398Z,15.00
2023-04-22T17:20:44.506Z,19.00
2023-04-22T17:23:14.197Z,23.67
2023-04-22T17:25:42.893Z,23.33
2023-04-22T17:28:11.809Z,25.33
2023-04-22T17:30:41.000Z,23.00
2023-04-22T17:33:09.953Z,22.33
2023-04-22T17:35:38.662Z,23.00
2023-04-22T17:38:08.104Z,22.33
2023-04-22T17:40:37.171Z,20.33
2023-04-22T17:43:05.958Z,22.33
2023-04-22T17:45:34.672Z,23.67
2023-04-22T17:48:03.502Z,27.00
2023-04-22T17:50:31.461Z,6.00
2023-04-22T17:53:00.748Z,34.67
2023-04-22T17:55:30.432Z,38.67
2023-04-22T17:58:00.316Z,36.67
2023-04-22T18:00:29.964Z,35.00
2023-04-22T18:02:59.046Z,31.67
2023-04-22T18:05:27.899Z,29.67
2023-04-22T18:08:02.829Z,31.67
2023-04-22T18:10:32.605Z,33.67
2023-04-22T18:13:01.274Z,25.33
2023-04-22T18:15:30.900Z,31.33
2023-04-22T18:18:00.437Z,30.33
2023-04-22T18:20:29.470Z,26.33
2023-04-22T18:22:59.004Z,29.00
2023-04-22T18:25:28.284Z,27.67
2023-04-22T18:27:57.768Z,23.67
2023-04-22T18:30:26.665Z,24.00
2023-04-22T18:32:55.658Z,26.00
2023-04-22T18:35:24.480Z,28.50
2023-04-22T18:37:53.253Z,32.67
2023-04-22T18:40:23.363Z,29.00
2023-04-22T18:42:52.890Z,28.00
2023-04-22T18:45:23.241Z,29.00
2023-04-22T18:47:52.091Z,23.67
2023-04-22T18:50:22.555Z,22.33
2023-04-22T18:52:51.397Z,24.00
2023-04-22T18:55:20.202Z,20.00
2023-04-22T18:57:50.210Z,25.00
2023-04-22T19:00:19.432Z,23.33
2023-04-22T19:02:49.220Z,19.00
2023-04-22T19:05:18.263Z,17.50
2023-04-22T19:07:47.030Z,14.50
2023-04-22T19:10:15.743Z,20.00
2023-04-22T19:12:44.514Z,19.50
2023-04-22T19:15:13.327Z,20.00
2023-04-22T19:17:43.023Z,22.50
2023-04-22T19:20:12.197Z,24.00
2023-04-22T19:22:41.918Z,37.67
2023-04-22T19:25:11.581Z,30.00
2023-04-22T19:27:41.138Z,32.67
2023-04-22T19:30:11.972Z,32.33
2023-04-22T19:32:40.931Z,33.50
2023-04-22T19:35:16.410Z,40.00
2023-04-22T19:37:46.084Z,43.67
2023-04-22T19:40:18.006Z,36.00
2023-04-22T19:42:48.333Z,37.00
2023-04-22T19:45:18.036Z,33.00
2023-04-22T19:47:48.003Z,34.33
2023-04-22T19:50:17.387Z,32.50
2023-04-22T19:52:48.026Z,31.67
2023-04-22T19:55:18.179Z,34.00
2023-04-22T19:57:47.422Z,30.67
2023-04-22T20:00:17.847Z,30.33
2023-04-22T20:02:47.963Z,32.33
2023-04-22T20:05:19.098Z,31.00
2023-04-22T20:07:51.624Z,24.00
2023-04-22T20:10:22.912Z,30.00
2023-04-22T20:12:53.937Z,29.67
2023-04-22T20:15:23.307Z,27.33
2023-04-22T20:17:54.201Z,26.33
2023-04-22T20:20:24.088Z,25.00
2023-04-22T20:22:54.618Z,38.50
2023-04-22T20:25:25.165Z,39.67
2023-04-22T20:27:54.494Z,41.50
2023-04-22T20:30:24.233Z,38.00
2023-04-22T20:32:53.933Z,35.67
2023-04-22T20:35:24.670Z,36.67
2023-04-22T20:38:00.243Z,34.00
2023-04-22T20:40:30.318Z,35.33
2023-04-22T20:42:59.163Z,36.50
2023-04-22T20:45:28.840Z,37.00
2023-04-22T20:47:58.624Z,38.00
2023-04-22T20:50:33.649Z,41.33
2023-04-22T20:53:05.015Z,39.00
2023-04-22T20:55:36.872Z,41.00
2023-04-22T20:58:06.947Z,45.00
2023-04-22T21:00:36.481Z,44.00
2023-04-22T21:03:09.498Z,40.00
2023-04-22T21:05:44.507Z,39.00
2023-04-22T21:08:27.748Z,50.33
2023-04-22T21:10:57.831Z,42.00
2023-04-22T21:13:29.040Z,42.50
2023-04-22T21:16:09.106Z,45.00
2023-04-22T21:18:43.921Z,47.33
2023-04-22T21:21:17.963Z,46.67
2023-04-22T21:23:46.845Z,46.50
2023-04-22T21:26:18.337Z,50.67
2023-04-22T21:28:48.318Z,46.67
2023-04-22T21:31:18.234Z,46.67
2023-04-22T21:33:47.760Z,46.00
2023-04-22T21:36:17.067Z,46.00
2023-04-22T21:38:47.114Z,43.33
2023-04-22T21:41:17.260Z,45.00
2023-04-22T21:43:46.836Z,44.33
2023-04-22T21:46:16.412Z,45.00
2023-04-22T21:48:45.984Z,42.00
2023-04-22T21:51:14.787Z,38.50
2023-04-22T21:53:44.730Z,38.33
2023-04-22T21:56:14.338Z,35.00
2023-04-22T21:58:43.903Z,60.33
2023-04-22T22:01:12.325Z,85.00
2023-04-22T22:03:42.151Z,41.33
2023-04-22T22:06:12.134Z,77.67
2023-04-22T22:08:41.783Z,50.00
2023-04-22T22:11:20.263Z,34.00
2023-04-22T22:13:57.502Z,33.33
2023-04-22T22:16:26.545Z,38.50
2023-04-22T22:18:58.085Z,44.67
2023-04-22T22:21:27.750Z,49.33
2023-04-22T22:23:57.933Z,59.50
2023-04-22T22:26:28.179Z,49.33
2023-04-22T22:28:57.869Z,51.00
2023-04-22T22:31:29.226Z,49.33
2023-04-22T22:33:59.147Z,49.00
2023-04-22T22:36:28.681Z,45.67
2023-04-22T22:38:57.478Z,39.00
2023-04-22T22:41:26.261Z,45.50
2023-04-22T22:43:55.998Z,44.33
2023-04-22T22:46:24.885Z,44.00
2023-04-22T22:48:53.685Z,44.50
2023-04-22T22:51:22.493Z,48.00
2023-04-22T22:53:52.266Z,49.00
2023-04-22T22:56:21.857Z,52.00
2023-04-22T22:58:51.649Z,50.67
2023-04-22T23:01:21.352Z,53.00
2023-04-22T23:03:51.356Z,49.67
2023-04-22T23:06:19.325Z,49.50
2023-04-22T23:08:48.121Z,46.50
2023-04-22T23:11:17.676Z,46.33
2023-04-22T23:13:46.759Z,44.00
2023-04-22T23:16:17.028Z,41.00
2023-04-22T23:18:45.985Z,44.00
2023-04-22T23:21:15.700Z,43.00
2023-04-22T23:23:44.521Z,43.50
2023-04-22T23:26:14.560Z,37.00
2023-04-22T23:28:44.708Z,42.00
2023-04-22T23:31:18.508Z,35.67
2023-04-22T23:33:51.218Z,37.00
2023-04-22T23:36:23.569Z,38.67
2023-04-22T23:38:53.159Z,36.33
2023-04-22T23:41:22.707Z,37.67
2023-04-22T23:43:52.239Z,39.00
2023-04-22T23:46:21.253Z,38.67
2023-04-22T23:48:51.009Z,38.33
2023-04-22T23:51:20.839Z,40.00
2023-04-22T23:53:50.410Z,40.33
2023-04-22T23:56:23.026Z,42.00
2023-04-22T23:58:52.548Z,39.00
